createdAt,value
2016-10-21T00:00:45.964Z,997.35
2016-10-21T00:01:56.256Z,997.32
2016-10-21T00:03:06.540Z,997.38
2016-10-21T00:04:16.815Z,997.34
2016-10-21T00:05:27.097Z,997.35
2016-10-21T00:06:37.064Z,997.32
2016-10-21T00:07:47.371Z,997.37
2016-10-21T00:08:57.327Z,997.37
2016-10-21T00:10:07.307Z,997.36
2016-10-21T00:11:17.619Z,997.34
2016-10-21T00:12:27.596Z,997.26
2016-10-21T00:13:37.878Z,997.27
2016-10-21T00:14:47.549Z,997.31
2016-10-21T00:15:57.226Z,997.28
2016-10-21T00:17:07.203Z,997.27
2016-10-21T00:18:17.194Z,997.28
2016-10-21T00:19:27.167Z,997.26
2016-10-21T00:20:37.460Z,997.25
2016-10-21T00:21:48.031Z,997.23
2016-10-21T00:22:58.003Z,997.21
2016-10-21T00:24:08.290Z,997.18
2016-10-21T00:25:18.569Z,997.2
2016-10-21T00:26:28.256Z,997.16
2016-10-21T00:27:38.528Z,997.1
2016-10-21T00:28:48.505Z,997.08
2016-10-21T00:29:58.473Z,997.06
2016-10-21T00:31:08.454Z,997.06
2016-10-21T00:32:18.741Z,997.01
2016-10-21T00:33:29.024Z,997.06
2016-10-21T00:34:38.994Z,997.06
2016-10-21T00:35:48.706Z,997.03
2016-10-21T00:36:58.986Z,996.98
2016-10-21T00:38:09.254Z,996.94
2016-10-21T00:39:19.529Z,996.95
2016-10-21T00:40:29.820Z,996.91
2016-10-21T00:41:39.785Z,996.9
2016-10-21T00:42:50.095Z,996.9
2016-10-21T00:44:00.381Z,996.91
2016-10-21T00:45:10.667Z,996.9
2016-10-21T00:46:20.640Z,996.87
2016-10-21T00:47:30.297Z,996.86
2016-10-21T00:48:40.285Z,996.85
2016-10-21T00:49:50.569Z,996.87
2016-10-21T00:51:00.226Z,996.88
2016-10-21T00:52:10.208Z,996.91
2016-10-21T00:53:20.186Z,996.92
2016-10-21T00:54:30.154Z,996.89
2016-10-21T00:55:39.834Z,996.85
2016-10-21T00:56:50.117Z,996.85
2016-10-21T00:58:00.402Z,996.79
2016-10-21T00:59:10.068Z,996.76
2016-10-21T01:00:20.350Z,996.77
2016-10-21T01:01:30.632Z,996.74
2016-10-21T01:02:40.319Z,996.71
2016-10-21T01:03:50.293Z,996.71
2016-10-21T01:05:00.569Z,996.68
2016-10-21T01:06:10.854Z,996.7
2016-10-21T01:07:20.510Z,996.72
2016-10-21T01:08:30.205Z,996.73
2016-10-21T01:09:40.492Z,996.67
2016-10-21T01:10:50.482Z,996.59
2016-10-21T01:12:00.452Z,996.54
2016-10-21T01:13:10.446Z,996.57
2016-10-21T01:14:20.709Z,996.56
2016-10-21T01:15:30.392Z,996.57
2016-10-21T01:16:40.670Z,996.59
2016-10-21T01:17:50.952Z,996.68
2016-10-21T01:19:00.928Z,996.74
2016-10-21T01:20:11.216Z,996.75
2016-10-21T01:21:21.203Z,996.82
2016-10-21T01:22:31.488Z,996.84
2016-10-21T01:23:41.759Z,996.83
2016-10-21T01:24:51.466Z,996.84
2016-10-21T01:26:01.440Z,996.79
2016-10-21T01:27:11.415Z,996.79
2016-10-21T01:28:21.433Z,996.84
2016-10-21T01:29:31.425Z,996.82
2016-10-21T01:30:41.406Z,996.78
2016-10-21T01:31:50.767Z,996.78
2016-10-21T01:33:00.744Z,996.75
2016-10-21T01:34:11.025Z,996.72
2016-10-21T01:35:20.997Z,996.78
2016-10-21T01:36:31.294Z,996.76
2016-10-21T01:37:41.001Z,996.79
2016-10-21T01:38:50.977Z,996.75
2016-10-21T01:40:00.959Z,996.8
2016-10-21T01:41:11.229Z,996.78
2016-10-21T01:42:21.202Z,996.78
2016-10-21T01:43:31.184Z,996.78
2016-10-21T01:44:41.160Z,996.76
2016-10-21T01:45:50.823Z,996.78
2016-10-21T01:47:00.813Z,996.77
2016-10-21T01:48:10.805Z,996.78
2016-10-21T01:49:20.767Z,996.77
2016-10-21T01:50:31.053Z,996.76
2016-10-21T01:51:41.345Z,996.72
2016-10-21T01:52:51.624Z,996.69
2016-10-21T01:54:01.918Z,996.72
2016-10-21T01:55:11.330Z,996.67
2016-10-21T01:56:20.993Z,996.65
2016-10-21T01:57:30.960Z,996.61
2016-10-21T01:58:41.261Z,996.6
2016-10-21T01:59:51.243Z,996.53
2016-10-21T02:01:01.225Z,996.51
2016-10-21T02:02:11.496Z,996.46
2016-10-21T02:03:21.493Z,996.43
2016-10-21T02:04:31.469Z,996.38
2016-10-21T02:05:40.837Z,996.4
2016-10-21T02:06:50.819Z,996.44
2016-10-21T02:08:01.101Z,996.46
2016-10-21T02:09:10.773Z,996.47
2016-10-21T02:10:20.742Z,996.5
2016-10-21T02:11:30.743Z,996.51
2016-10-21T02:12:40.716Z,996.51
2016-10-21T02:13:50.686Z,996.43
2016-10-21T02:15:00.989Z,996.38
2016-10-21T02:16:10.973Z,996.42
2016-10-21T02:17:21.272Z,996.34
2016-10-21T02:18:31.554Z,996.38
2016-10-21T02:19:41.880Z,996.4
2016-10-21T02:20:51.558Z,996.49
2016-10-21T02:22:01.865Z,996.45
2016-10-21T02:23:11.536Z,996.5
2016-10-21T02:24:21.518Z,996.43
2016-10-21T02:25:31.849Z,996.48
2016-10-21T02:26:42.172Z,996.46
2016-10-21T02:27:52.148Z,996.51
2016-10-21T02:29:02.431Z,996.49
2016-10-21T02:30:12.771Z,996.5
2016-10-21T02:31:22.425Z,996.48
2016-10-21T02:32:32.398Z,996.48
2016-10-21T02:33:42.676Z,996.44
2016-10-21T02:34:52.649Z,996.5
2016-10-21T02:36:02.330Z,996.53
2016-10-21T02:37:12.647Z,996.57
2016-10-21T02:38:22.619Z,996.57
2016-10-21T02:39:32.593Z,996.57
2016-10-21T02:40:42.556Z,996.61
2016-10-21T02:41:52.848Z,996.52
2016-10-21T02:43:03.130Z,996.52
2016-10-21T02:44:12.812Z,996.57
2016-10-21T02:45:22.784Z,996.53
2016-10-21T02:46:32.454Z,996.53
2016-10-21T02:47:42.427Z,996.52
2016-10-21T02:48:52.094Z,996.56
2016-10-21T02:50:02.065Z,996.53
2016-10-21T02:51:12.357Z,996.53
2016-10-21T02:52:22.639Z,996.6
2016-10-21T02:53:32.616Z,996.53
2016-10-21T02:54:42.601Z,996.52
2016-10-21T02:55:52.314Z,996.53
2016-10-21T02:57:02.609Z,996.48
2016-10-21T02:58:12.900Z,996.51
2016-10-21T02:59:23.217Z,996.48
2016-10-21T03:00:33.201Z,996.5
2016-10-21T03:32:55.057Z,996.26
2016-10-21T03:34:05.314Z,996.28
2016-10-21T03:35:15.622Z,996.28
2016-10-21T03:36:25.583Z,996.26
2016-10-21T03:37:35.854Z,996.24
2016-10-21T03:38:46.126Z,996.25
2016-10-21T03:39:56.137Z,996.19
2016-10-21T03:41:06.430Z,996.18
2016-10-21T03:42:16.717Z,996.13
2016-10-21T03:43:27.001Z,996.15
2016-10-21T03:44:36.964Z,996.15
2016-10-21T03:45:47.291Z,996.12
2016-10-21T03:46:57.576Z,996.15
2016-10-21T03:48:07.855Z,996.13
2016-10-21T03:49:17.817Z,996.15
2016-10-21T03:50:27.792Z,996.14
2016-10-21T03:51:37.764Z,996.13
2016-10-21T03:52:48.051Z,996.12
2016-10-21T03:53:58.328Z,996.14
2016-10-21T03:55:08.303Z,996.15
2016-10-21T03:56:18.001Z,996.17
2016-10-21T03:57:27.961Z,996.17
2016-10-21T03:58:38.242Z,996.15
2016-10-21T03:59:48.516Z,996.18
2016-10-21T04:00:58.808Z,996.16
2016-10-21T04:02:09.089Z,996.2
2016-10-21T04:03:19.369Z,996.18
2016-10-21T04:04:29.339Z,996.17
2016-10-21T04:05:39.617Z,996.14
2016-10-21T04:06:49.632Z,996.11
2016-10-21T04:07:59.914Z,996.11
2016-10-21T04:09:09.936Z,996.03
2016-10-21T04:10:19.521Z,996.09
2016-10-21T04:11:29.805Z,996.1
2016-10-21T04:12:39.780Z,996.1
2016-10-21T04:13:50.051Z,996.07
2016-10-21T04:15:00.319Z,996.11
2016-10-21T04:16:10.344Z,996.09
2016-10-21T04:17:20.322Z,996.04
2016-10-21T04:18:30.298Z,996.04
2016-10-21T04:19:40.274Z,996.02
2016-10-21T04:20:50.547Z,996.04
2016-10-21T04:22:00.522Z,996.05
2016-10-21T04:23:10.494Z,996.08
2016-10-21T04:24:20.773Z,996.09
2016-10-21T04:25:30.752Z,996.15
2016-10-21T04:26:40.749Z,996.12
2016-10-21T04:27:50.725Z,996.16
2016-10-21T04:29:01.011Z,996.16
2016-10-21T04:30:10.984Z,996.24
2016-10-21T04:31:20.336Z,996.27
2016-10-21T04:32:30.621Z,996.29
2016-10-21T04:33:40.594Z,996.28
2016-10-21T04:34:50.563Z,996.31
2016-10-21T04:36:00.527Z,996.25
2016-10-21T04:37:10.815Z,996.24
2016-10-21T04:38:21.095Z,996.22
2016-10-21T04:39:30.757Z,996.31
2016-10-21T04:40:40.431Z,996.29
2016-10-21T04:41:50.410Z,996.28
2016-10-21T04:43:00.692Z,996.26
2016-10-21T04:44:10.959Z,996.25
2016-10-21T04:45:20.987Z,996.23
2016-10-21T04:46:31.254Z,996.23
2016-10-21T04:47:41.529Z,996.22
2016-10-21T04:48:51.497Z,996.2
2016-10-21T04:50:01.469Z,996.2
2016-10-21T04:51:11.443Z,996.17
2016-10-21T04:52:21.723Z,996.16
2016-10-21T04:53:32.012Z,996.17
2016-10-21T04:54:41.983Z,996.21
2016-10-21T04:55:51.951Z,996.29
2016-10-21T04:57:01.924Z,996.25
2016-10-21T04:58:11.896Z,996.25
2016-10-21T04:59:22.173Z,996.23
2016-10-21T05:00:32.139Z,996.26
2016-10-21T05:01:41.800Z,996.23
2016-10-21T05:02:52.081Z,996.2
2016-10-21T05:04:02.360Z,996.19
2016-10-21T05:05:11.710Z,996.15
2016-10-21T05:06:21.681Z,996.08
2016-10-21T05:07:31.954Z,996.1
2016-10-21T05:08:41.612Z,996.06
2016-10-21T05:09:51.883Z,996.09
2016-10-21T05:11:01.864Z,996.08
2016-10-21T05:12:12.138Z,996.04
2016-10-21T05:13:21.794Z,996.04
2016-10-21T05:14:32.079Z,996.08
2016-10-21T05:15:41.741Z,996.1
2016-10-21T05:16:51.723Z,996.08
2016-10-21T05:18:01.682Z,996.13
2016-10-21T05:19:11.645Z,996.11
2016-10-21T05:20:21.619Z,996.16
2016-10-21T05:21:31.890Z,996.17
2016-10-21T05:22:41.863Z,996.15
2016-10-21T05:23:52.148Z,996.12
2016-10-21T05:25:02.127Z,996.12
2016-10-21T05:26:12.400Z,996.14
2016-10-21T05:27:22.367Z,996.17
2016-10-21T05:28:32.650Z,996.18
2016-10-21T05:29:42.940Z,996.22
2016-10-21T05:30:52.908Z,996.23
2016-10-21T05:32:03.199Z,996.27
2016-10-21T05:33:13.201Z,996.28
2016-10-21T05:34:23.475Z,996.32
2016-10-21T05:35:33.126Z,996.38
2016-10-21T05:36:43.102Z,996.37
2016-10-21T05:37:53.090Z,996.4
2016-10-21T05:39:03.366Z,996.44
2016-10-21T05:40:13.357Z,996.44
2016-10-21T05:41:23.321Z,996.4
2016-10-21T05:42:33.595Z,996.39
2016-10-21T05:43:43.881Z,996.34
2016-10-21T05:44:54.162Z,996.34
2016-10-21T05:46:03.816Z,996.34
2016-10-21T05:47:13.788Z,996.3
2016-10-21T05:48:24.069Z,996.28
2016-10-21T05:49:34.350Z,996.27
2016-10-21T05:50:44.317Z,996.25
2016-10-21T05:51:53.985Z,996.27
2016-10-21T05:53:04.299Z,996.31
2016-10-21T05:54:14.262Z,996.31
2016-10-21T05:55:24.534Z,996.36
2016-10-21T05:56:34.515Z,996.37
2016-10-21T05:57:44.498Z,996.36
2016-10-21T05:58:54.779Z,996.36
2016-10-21T06:00:05.069Z,996.34
2016-10-21T06:01:15.352Z,996.33
2016-10-21T06:02:25.644Z,996.35
2016-10-21T06:03:35.910Z,996.37
2016-10-21T06:04:46.201Z,996.35
2016-10-21T06:05:56.173Z,996.35
2016-10-21T06:07:06.481Z,996.37
2016-10-21T06:08:16.463Z,996.38
2016-10-21T06:09:26.740Z,996.33
2016-10-21T06:10:36.706Z,996.35
2016-10-21T06:11:46.677Z,996.34
2016-10-21T06:12:56.640Z,996.34
2016-10-21T06:14:06.928Z,996.32
2016-10-21T06:15:16.302Z,996.35
2016-10-21T06:16:26.279Z,996.34
2016-10-21T06:17:36.252Z,996.34
2016-10-21T06:18:46.535Z,996.37
2016-10-21T06:19:56.815Z,996.34
2016-10-21T06:21:07.112Z,996.33
2016-10-21T06:22:17.402Z,996.31
2016-10-21T06:23:27.374Z,996.38
2016-10-21T06:24:37.646Z,996.39
2016-10-21T06:25:47.624Z,996.4
2016-10-21T06:26:57.944Z,996.41
2016-10-21T06:28:07.607Z,996.43
2016-10-21T06:29:17.888Z,996.43
2016-10-21T06:30:28.180Z,996.46
2016-10-21T06:31:38.168Z,996.44
2016-10-21T06:32:47.843Z,996.43
2016-10-21T06:33:58.125Z,996.47
2016-10-21T06:35:08.407Z,996.45
2016-10-21T06:36:18.688Z,996.46
2016-10-21T06:37:28.954Z,996.47
2016-10-21T06:38:39.227Z,996.41
2016-10-21T06:39:49.500Z,996.44
2016-10-21T06:40:59.801Z,996.46
2016-10-21T06:42:09.797Z,996.44
2016-10-21T06:43:19.458Z,996.42
2016-10-21T06:44:29.835Z,996.45
2016-10-21T06:45:40.111Z,996.46
2016-10-21T06:46:50.430Z,996.48
2016-10-21T06:48:00.714Z,996.55
2016-10-21T06:49:10.678Z,996.56
2016-10-21T06:50:20.894Z,996.6
2016-10-21T06:51:31.192Z,996.61
2016-10-21T06:52:41.485Z,996.62
2016-10-21T06:53:51.803Z,996.66
2016-10-21T06:55:02.097Z,996.68
2016-10-21T06:56:12.406Z,996.67
2016-10-21T06:57:22.404Z,996.67
2016-10-21T06:58:32.378Z,996.7
2016-10-21T06:59:42.652Z,996.69
2016-10-21T07:00:52.316Z,996.69
2016-10-21T07:02:02.600Z,996.68
2016-10-21T07:03:12.582Z,996.67
2016-10-21T07:04:22.550Z,996.65
2016-10-21T07:05:32.533Z,996.7
2016-10-21T07:06:42.851Z,996.7
2016-10-21T07:07:53.128Z,996.72
2016-10-21T07:09:03.448Z,996.74
2016-10-21T07:10:13.448Z,996.72
2016-10-21T07:11:23.715Z,996.73
2016-10-21T07:12:34.025Z,996.7
2016-10-21T07:13:44.313Z,996.68
2016-10-21T07:14:54.603Z,996.66
2016-10-21T07:16:04.896Z,996.68
2016-10-21T07:17:15.174Z,996.67
2016-10-21T07:18:25.449Z,996.67
2016-10-21T07:19:35.736Z,996.66
2016-10-21T07:20:46.025Z,996.68
2016-10-21T07:21:56.021Z,996.69
2016-10-21T07:23:06.001Z,996.68
2016-10-21T07:24:15.983Z,996.67
2016-10-21T07:25:25.660Z,996.67
2016-10-21T07:26:35.640Z,996.69
2016-10-21T07:27:45.612Z,996.67
2016-10-21T07:28:55.899Z,996.68
2016-10-21T07:30:05.591Z,996.68
2016-10-21T07:31:15.879Z,996.64
2016-10-21T07:32:25.858Z,996.65
2016-10-21T07:33:35.846Z,996.61
2016-10-21T07:34:46.127Z,996.64
2016-10-21T07:35:56.118Z,996.6
2016-10-21T07:37:06.397Z,996.64
2016-10-21T07:38:16.416Z,996.65
2016-10-21T07:39:26.739Z,996.68
2016-10-21T07:40:36.709Z,996.66
2016-10-21T07:41:46.984Z,996.67
2016-10-21T07:42:56.662Z,996.65
2016-10-21T07:44:06.948Z,996.66
2016-10-21T07:45:17.273Z,996.71
2016-10-21T07:46:27.564Z,996.71
2016-10-21T07:47:37.546Z,996.76
2016-10-21T07:48:47.832Z,996.73
2016-10-21T07:49:58.154Z,996.74
2016-10-21T07:51:08.426Z,996.74
2016-10-21T07:52:18.403Z,996.74
2016-10-21T07:53:28.384Z,996.77
2016-10-21T07:54:38.056Z,996.79
2016-10-21T07:55:48.337Z,996.8
2016-10-21T07:56:58.621Z,996.8
2016-10-21T07:58:08.308Z,996.74
2016-10-21T07:59:18.277Z,996.74
2016-10-21T08:00:28.575Z,996.81
2016-10-21T08:01:38.863Z,996.81
2016-10-21T08:02:48.870Z,996.81
2016-10-21T08:03:59.156Z,996.78
2016-10-21T08:05:09.181Z,996.79
2016-10-21T08:06:19.460Z,996.77
2016-10-21T08:07:29.435Z,996.79
2016-10-21T08:08:39.726Z,996.73
2016-10-21T08:09:50.008Z,996.73
2016-10-21T08:10:59.997Z,996.77
2016-10-21T08:12:09.671Z,996.78
2016-10-21T08:13:19.650Z,996.72
2016-10-21T08:14:29.859Z,996.76
2016-10-21T08:15:39.841Z,996.71
2016-10-21T08:16:50.134Z,996.79
2016-10-21T08:17:59.807Z,996.79
2016-10-21T08:19:09.472Z,996.78
2016-10-21T08:20:19.757Z,996.75
2016-10-21T08:21:30.059Z,996.78
2016-10-21T08:22:40.342Z,996.74
2016-10-21T08:23:50.324Z,996.73
2016-10-21T08:24:59.704Z,996.77
2016-10-21T08:26:09.706Z,996.76
2016-10-21T08:27:20.018Z,996.75
2016-10-21T08:28:30.318Z,996.75
2016-10-21T08:29:40.308Z,996.75
2016-10-21T08:30:50.291Z,996.79
2016-10-21T08:32:00.575Z,996.76
2016-10-21T08:33:10.588Z,996.77
2016-10-21T08:34:20.898Z,996.72
2016-10-21T08:35:31.184Z,996.72
2016-10-21T08:36:41.498Z,996.7
2016-10-21T08:37:51.481Z,996.73
2016-10-21T08:39:01.769Z,996.71
2016-10-21T08:40:11.843Z,996.72
2016-10-21T08:41:22.412Z,996.67
2016-10-21T08:42:39.310Z,996.67
2016-10-21T08:43:56.430Z,996.66
2016-10-21T08:45:10.309Z,996.74
2016-10-21T08:46:22.765Z,996.75
2016-10-21T08:47:35.832Z,996.74
2016-10-21T08:48:46.043Z,996.79
2016-10-21T08:50:02.286Z,996.77
2016-10-21T08:51:12.606Z,996.81
2016-10-21T08:52:22.908Z,996.79
2016-10-21T08:53:32.581Z,996.81
2016-10-21T08:54:42.599Z,996.78
2016-10-21T08:55:52.944Z,996.76
2016-10-21T08:57:02.649Z,996.74
2016-10-21T08:58:12.370Z,996.76
2016-10-21T08:59:22.689Z,996.77
2016-10-21T09:00:32.977Z,996.74
2016-10-21T09:01:43.036Z,996.77
2016-10-21T09:02:53.320Z,996.69
2016-10-21T09:04:03.708Z,996.67
2016-10-21T09:05:14.045Z,996.69
2016-10-21T09:06:24.309Z,996.69
2016-10-21T09:07:34.655Z,996.68
2016-10-21T09:08:44.719Z,996.69
2016-10-21T09:09:54.753Z,996.69
2016-10-21T09:11:04.785Z,996.66
2016-10-21T09:12:14.792Z,996.7
2016-10-21T09:13:24.788Z,996.64
2016-10-21T09:14:35.077Z,996.63
2016-10-21T09:15:44.762Z,996.61
2016-10-21T09:16:54.738Z,996.64
2016-10-21T09:18:05.043Z,996.67
2016-10-21T09:19:15.339Z,996.62
2016-10-21T09:20:25.334Z,996.63
2016-10-21T09:21:35.313Z,996.64
2016-10-21T09:22:45.288Z,996.6
2016-10-21T09:23:55.260Z,996.62
2016-10-21T09:25:05.555Z,996.61
2016-10-21T09:26:15.849Z,996.62
2016-10-21T09:27:26.144Z,996.6
2016-10-21T09:28:36.481Z,996.63
2016-10-21T09:29:46.776Z,996.58
2016-10-21T09:30:57.064Z,996.55
2016-10-21T09:32:06.749Z,996.56
2016-10-21T09:33:16.767Z,996.55
2016-10-21T09:34:26.459Z,996.53
2016-10-21T09:35:36.151Z,996.52
2016-10-21T09:36:46.472Z,996.56
2016-10-21T09:37:56.769Z,996.53
2016-10-21T09:39:07.077Z,996.53
2016-10-21T09:40:17.433Z,996.49
2016-10-21T09:41:27.118Z,996.53
2016-10-21T09:42:37.433Z,996.54
2016-10-21T09:43:47.736Z,996.5
2016-10-21T09:44:58.025Z,996.49
2016-10-21T09:46:08.012Z,996.5
2016-10-21T09:47:18.302Z,996.49
2016-10-21T09:48:28.292Z,996.46
2016-10-21T09:49:37.970Z,996.45
2016-10-21T09:50:48.327Z,996.41
2016-10-21T09:51:58.643Z,996.42
2016-10-21T09:53:08.935Z,996.41
2016-10-21T09:54:18.924Z,996.38
2016-10-21T09:55:28.895Z,996.39
2016-10-21T09:56:38.893Z,996.42
2016-10-21T09:57:49.196Z,996.41
2016-10-21T09:58:59.516Z,996.4
2016-10-21T10:00:09.525Z,996.4
2016-10-21T10:01:19.844Z,996.4
2016-10-21T10:02:30.187Z,996.38
2016-10-21T10:03:40.185Z,996.4
2016-10-21T10:04:49.869Z,996.4
2016-10-21T10:06:00.163Z,996.45
2016-10-21T10:07:10.151Z,996.45
2016-10-21T10:08:19.837Z,996.51
2016-10-21T10:09:30.151Z,996.5
2016-10-21T10:10:40.142Z,996.5
2016-10-21T10:11:50.434Z,996.54
2016-10-21T10:13:00.745Z,996.57
2016-10-21T10:14:11.053Z,996.54
2016-10-21T10:15:21.324Z,996.5
2016-10-21T10:16:31.310Z,996.48
2016-10-21T10:17:41.600Z,996.49
2016-10-21T10:18:51.589Z,996.47
2016-10-21T10:20:01.895Z,996.46
2016-10-21T10:21:11.896Z,996.46
2016-10-21T10:22:22.525Z,996.42
2016-10-21T10:23:32.824Z,996.44
2016-10-21T10:24:42.527Z,996.41
2016-10-21T10:25:52.842Z,996.39
2016-10-21T10:27:02.855Z,996.38
2016-10-21T10:28:13.152Z,996.35
2016-10-21T10:29:23.141Z,996.32
2016-10-21T10:30:33.436Z,996.35
2016-10-21T10:31:43.773Z,996.33
2016-10-21T10:32:54.084Z,996.34
2016-10-21T10:34:03.766Z,996.35
2016-10-21T10:35:14.091Z,996.33
2016-10-21T10:36:24.405Z,996.36
2016-10-21T10:37:34.388Z,996.35
2016-10-21T10:38:43.770Z,996.34
2016-10-21T10:39:54.141Z,996.31
2016-10-21T10:41:04.447Z,996.28
2016-10-21T10:42:14.151Z,996.2
2016-10-21T10:43:24.173Z,996.18
2016-10-21T10:44:34.533Z,996.18
2016-10-21T10:45:44.836Z,996.22
2016-10-21T10:46:54.832Z,996.17
2016-10-21T10:48:05.133Z,996.21
2016-10-21T10:49:15.437Z,996.22
2016-10-21T10:50:25.802Z,996.18
2016-10-21T10:51:35.824Z,996.25
2016-10-21T10:52:45.908Z,996.19
2016-10-21T10:53:56.248Z,996.2
2016-10-21T10:55:06.593Z,996.21
2016-10-21T10:56:16.929Z,996.17
2016-10-21T10:57:27.263Z,996.19
2016-10-21T10:58:37.600Z,996.24
2016-10-21T10:59:47.909Z,996.2
2016-10-21T11:00:58.219Z,996.18
2016-10-21T11:02:08.217Z,996.19
2016-10-21T11:03:18.215Z,996.13
2016-10-21T11:04:27.919Z,996.15
2016-10-21T11:05:38.239Z,996.12
2016-10-21T11:06:47.957Z,996.11
2016-10-21T11:07:57.969Z,996.12
2016-10-21T11:09:07.959Z,996.14
2016-10-21T11:10:17.963Z,996.13
2016-10-21T11:11:28.276Z,996.12
2016-10-21T11:12:38.286Z,996.1
2016-10-21T11:13:48.288Z,996.1
2016-10-21T11:14:58.292Z,996.1
2016-10-21T11:16:08.303Z,996.09
2016-10-21T11:17:18.365Z,996.11
2016-10-21T11:18:28.667Z,996.09
2016-10-21T11:19:38.962Z,996.07
2016-10-21T11:20:48.654Z,996.08
2016-10-21T11:21:58.686Z,996.02
2016-10-21T11:23:09.032Z,996.04
2016-10-21T11:24:18.727Z,996
2016-10-21T11:25:28.736Z,995.97
2016-10-21T11:26:39.030Z,995.97
2016-10-21T11:27:49.364Z,995.96
2016-10-21T11:28:59.358Z,995.94
2016-10-21T11:30:09.670Z,995.94
2016-10-21T11:31:19.696Z,995.97
2016-10-21T11:32:29.743Z,995.98
2016-10-21T11:33:40.058Z,995.98
2016-10-21T11:34:50.375Z,995.99
2016-10-21T11:36:00.365Z,996.01
2016-10-21T11:37:10.700Z,995.99
2016-10-21T11:38:20.709Z,996
2016-10-21T11:39:31.034Z,995.97
2016-10-21T11:40:41.350Z,995.97
2016-10-21T11:41:51.346Z,996.01
2016-10-21T11:43:01.674Z,995.97
2016-10-21T11:44:11.681Z,996.02
2016-10-21T11:45:22.002Z,996
2016-10-21T11:46:31.984Z,996.05
2016-10-21T11:47:41.972Z,996.01
2016-10-21T11:48:51.890Z,996.04
2016-10-21T11:50:01.925Z,995.98
2016-10-21T11:51:11.608Z,996
2016-10-21T11:52:21.919Z,995.98
2016-10-21T11:53:31.908Z,996
2016-10-21T11:54:41.603Z,995.92
2016-10-21T11:55:51.934Z,995.97
2016-10-21T11:57:02.249Z,996
2016-10-21T11:58:12.245Z,996.02
2016-10-21T11:59:22.251Z,995.99
2016-10-21T12:00:32.248Z,995.95
2016-10-21T12:01:42.583Z,996.02
2016-10-21T12:02:52.582Z,995.97
2016-10-21T12:04:02.595Z,995.94
2016-10-21T12:05:12.894Z,995.98
2016-10-21T12:06:22.888Z,995.94
2016-10-21T12:07:33.201Z,995.93
2016-10-21T12:08:43.221Z,995.93
2016-10-21T12:09:53.575Z,995.89
2016-10-21T12:11:03.282Z,995.89
2016-10-21T12:12:12.986Z,995.85
2016-10-21T12:13:22.981Z,995.84
2016-10-21T12:14:33.322Z,995.78
2016-10-21T12:15:43.636Z,995.81
2016-10-21T12:16:53.950Z,995.81
2016-10-21T12:18:03.350Z,995.83
2016-10-21T12:19:13.666Z,995.85
2016-10-21T12:20:23.652Z,995.82
2016-10-21T12:21:34.030Z,995.85
2016-10-21T12:22:44.347Z,995.83
2016-10-21T12:23:54.653Z,995.82
2016-10-21T12:25:05.195Z,995.86
2016-10-21T12:26:15.203Z,995.9
2016-10-21T12:27:25.196Z,995.9
2016-10-21T12:28:35.208Z,995.91
2016-10-21T12:29:45.522Z,995.95
2016-10-21T12:30:55.539Z,995.95
2016-10-21T12:32:05.559Z,995.97
2016-10-21T12:33:15.245Z,995.99
2016-10-21T12:34:24.933Z,995.99
2016-10-21T12:35:34.915Z,995.99
2016-10-21T12:36:45.221Z,996.01
2016-10-21T12:37:55.216Z,995.98
2016-10-21T12:39:05.540Z,996.01
2016-10-21T12:40:15.861Z,995.97
2016-10-21T12:41:25.902Z,995.97
2016-10-21T12:42:36.220Z,995.94
2016-10-21T12:43:46.525Z,995.91
2016-10-21T12:44:56.837Z,995.99
2016-10-21T12:46:06.824Z,995.96
2016-10-21T12:47:16.856Z,995.95
2016-10-21T12:48:26.862Z,995.9
2016-10-21T12:49:37.174Z,995.89
2016-10-21T12:50:47.200Z,995.89
2016-10-21T12:51:57.505Z,995.86
2016-10-21T12:53:07.847Z,995.83
2016-10-21T12:54:17.220Z,995.86
2016-10-21T12:55:27.214Z,995.85
2016-10-21T12:56:37.214Z,995.85
2016-10-21T12:57:47.230Z,995.82
2016-10-21T12:58:56.950Z,995.77
2016-10-21T13:00:07.263Z,995.74
2016-10-21T13:01:17.298Z,995.73
2016-10-21T13:02:27.632Z,995.72
2016-10-21T13:03:37.932Z,995.71
2016-10-21T13:04:48.244Z,995.73
2016-10-21T13:05:58.585Z,995.73
2016-10-21T13:07:08.297Z,995.74
2016-10-21T13:08:18.275Z,995.73
2016-10-21T13:09:28.268Z,995.71
2016-10-21T13:10:38.572Z,995.77
2016-10-21T13:11:48.886Z,995.75
2016-10-21T13:12:59.197Z,995.73
2016-10-21T13:14:08.907Z,995.74
2016-10-21T13:15:18.895Z,995.7
2016-10-21T13:16:29.208Z,995.74
2016-10-21T13:17:39.525Z,995.76
2016-10-21T13:18:49.512Z,995.75
2016-10-21T13:19:59.218Z,995.76
2016-10-21T13:21:09.555Z,995.79
2016-10-21T13:22:19.552Z,995.76
2016-10-21T13:23:29.854Z,995.79
2016-10-21T13:24:39.862Z,995.77
2016-10-21T13:25:49.854Z,995.76
2016-10-21T13:27:00.179Z,995.77
2016-10-21T13:28:10.480Z,995.78
2016-10-21T13:29:20.778Z,995.8
2016-10-21T13:30:31.111Z,995.77
2016-10-21T13:31:41.121Z,995.79
2016-10-21T13:32:51.114Z,995.81
2016-10-21T13:34:01.082Z,995.79
2016-10-21T13:35:11.389Z,995.8
2016-10-21T13:36:21.708Z,995.82
2016-10-21T13:37:32.057Z,995.82
2016-10-21T13:38:42.090Z,995.78
2016-10-21T13:39:51.787Z,995.83
2016-10-21T13:41:02.109Z,995.82
2016-10-21T13:42:12.447Z,995.79
2016-10-21T13:43:22.461Z,995.8
2016-10-21T13:44:31.835Z,995.77
2016-10-21T13:45:41.846Z,995.77
2016-10-21T13:46:52.150Z,995.78
2016-10-21T13:48:02.442Z,995.75
2016-10-21T13:49:12.750Z,995.73
2016-10-21T13:50:22.749Z,995.77
2016-10-21T13:51:33.060Z,995.79
2016-10-21T13:52:43.049Z,995.76
2016-10-21T13:53:53.357Z,995.79
2016-10-21T13:55:03.084Z,995.73
2016-10-21T13:56:13.421Z,995.76
2016-10-21T13:57:23.128Z,995.73
2016-10-21T13:58:33.455Z,995.72
2016-10-21T13:59:43.803Z,995.69
2016-10-21T14:00:54.347Z,995.71
2016-10-21T14:02:04.699Z,995.73
2016-10-21T14:03:14.706Z,995.7
2016-10-21T14:04:25.051Z,995.74
2016-10-21T14:05:35.351Z,995.73
2016-10-21T14:06:45.348Z,995.8
2016-10-21T14:07:55.334Z,995.78
2016-10-21T14:09:05.350Z,995.76
2016-10-21T14:10:15.066Z,995.76
2016-10-21T14:11:25.067Z,995.81
2016-10-21T14:12:35.047Z,995.78
2016-10-21T14:13:45.385Z,995.89
2016-10-21T14:14:55.733Z,995.81
2016-10-21T14:16:05.737Z,995.84
2016-10-21T14:17:16.030Z,995.82
2016-10-21T14:18:26.038Z,995.84
2016-10-21T14:19:36.363Z,995.86
2016-10-21T14:20:46.360Z,995.85
2016-10-21T14:21:56.370Z,995.87
2016-10-21T14:23:06.705Z,995.89
2016-10-21T14:24:16.704Z,995.86
2016-10-21T14:25:27.026Z,995.85
2016-10-21T14:26:37.339Z,995.89
2016-10-21T14:27:47.673Z,995.87
2016-10-21T14:28:57.675Z,995.87
2016-10-21T14:30:07.979Z,995.87
2016-10-21T14:31:17.665Z,995.86
2016-10-21T14:32:27.713Z,995.86
2016-10-21T14:33:37.756Z,995.9
2016-10-21T14:34:48.060Z,995.89
2016-10-21T14:35:58.061Z,995.86
2016-10-21T14:37:08.066Z,995.86
2016-10-21T14:38:18.072Z,995.83
2016-10-21T14:39:28.082Z,995.86
2016-10-21T14:40:38.398Z,995.9
2016-10-21T14:41:48.709Z,995.91
2016-10-21T14:42:58.110Z,995.91
2016-10-21T14:44:08.163Z,995.93
2016-10-21T14:45:18.467Z,995.91
2016-10-21T14:46:28.782Z,995.92
2016-10-21T14:47:38.976Z,995.93
2016-10-21T14:48:48.973Z,995.95
2016-10-21T14:49:58.985Z,995.97
2016-10-21T14:51:08.972Z,995.97
2016-10-21T14:52:19.297Z,995.99
2016-10-21T14:53:29.607Z,995.96
2016-10-21T14:54:39.606Z,995.96
2016-10-21T14:55:49.623Z,995.98
2016-10-21T14:56:59.920Z,996.01
2016-10-21T14:58:10.230Z,996
2016-10-21T14:59:20.247Z,996.02
2016-10-21T15:00:30.593Z,996
2016-10-21T15:01:40.888Z,996.02
2016-10-21T15:02:50.571Z,996.04
2016-10-21T15:04:00.873Z,996.02
2016-10-21T15:05:11.190Z,996.02
2016-10-21T15:06:21.475Z,995.97
2016-10-21T15:07:31.813Z,996.02
2016-10-21T15:08:42.118Z,995.99
2016-10-21T15:09:52.433Z,995.99